createdAt,value
2023-05-04T00:00:38.091Z,9.70
2023-05-04T00:03:07.958Z,9.40
2023-05-04T00:05:37.667Z,9.35
2023-05-04T00:08:10.097Z,9.10
2023-05-04T00:10:39.777Z,10.13
2023-05-04T00:13:09.548Z,8.93
2023-05-04T00:15:39.461Z,10.10
2023-05-04T00:18:09.262Z,9.10
2023-05-04T00:20:38.969Z,9.43
2023-05-04T00:23:11.356Z,9.60
2023-05-04T00:25:41.045Z,9.32
2023-05-04T00:28:10.760Z,10.60
2023-05-04T00:30:40.565Z,8.70
2023-05-04T00:33:10.381Z,9.82
2023-05-04T00:35:40.280Z,9.77
2023-05-04T00:38:13.474Z,9.53
2023-05-04T00:40:43.238Z,9.60
2023-05-04T00:43:14.310Z,10.48
2023-05-04T00:45:44.200Z,10.35
2023-05-04T00:48:14.195Z,9.88
2023-05-04T00:50:43.985Z,9.43
2023-05-04T00:53:16.533Z,8.52
2023-05-04T00:55:46.278Z,9.02
2023-05-04T00:58:16.018Z,9.82
2023-05-04T01:00:45.765Z,10.00
2023-05-04T01:03:15.692Z,9.33
2023-05-04T01:05:49.607Z,10.57
2023-05-04T01:08:24.848Z,9.90
2023-05-04T01:10:59.623Z,9.80
2023-05-04T01:13:31.199Z,9.68
2023-05-04T01:16:01.180Z,9.05
2023-05-04T01:18:30.876Z,10.25
2023-05-04T01:21:00.577Z,9.32
2023-05-04T01:23:33.097Z,10.07
2023-05-04T01:26:06.650Z,9.57
2023-05-04T01:28:42.477Z,10.65
2023-05-04T01:31:13.096Z,10.10
2023-05-04T01:33:43.301Z,10.00
2023-05-04T01:36:13.012Z,10.17
2023-05-04T01:38:45.328Z,9.30
2023-05-04T01:41:15.042Z,9.90
2023-05-04T01:43:45.294Z,9.75
2023-05-04T01:46:15.087Z,9.60
2023-05-04T01:48:44.805Z,9.40
2023-05-04T01:51:14.547Z,9.50
2023-05-04T01:53:46.898Z,8.98
2023-05-04T01:56:16.720Z,9.30
2023-05-04T01:58:46.475Z,9.30
2023-05-04T02:01:16.665Z,9.10
2023-05-04T02:03:46.600Z,9.80
2023-05-04T02:06:16.496Z,9.50
2023-05-04T02:08:49.502Z,10.10
2023-05-04T02:11:19.300Z,10.20
2023-05-04T02:13:49.161Z,9.63
2023-05-04T02:16:18.874Z,9.80
2023-05-04T02:18:49.202Z,8.90
2023-05-04T02:21:18.945Z,8.68
2023-05-04T02:23:51.262Z,9.10
2023-05-04T02:26:21.132Z,8.43
2023-05-04T02:28:50.803Z,9.23
2023-05-04T02:31:20.557Z,9.57
2023-05-04T02:33:50.270Z,9.70
2023-05-04T02:36:19.909Z,8.70
2023-05-04T02:38:52.282Z,9.90
2023-05-04T02:41:22.010Z,9.57
2023-05-04T02:43:51.748Z,10.02
2023-05-04T02:46:22.331Z,9.45
2023-05-04T02:48:55.573Z,10.07
2023-05-04T02:51:26.295Z,9.60
2023-05-04T02:53:58.609Z,10.13
2023-05-04T02:56:28.398Z,9.65
2023-05-04T02:58:58.202Z,9.60
2023-05-04T03:01:28.017Z,10.20
2023-05-04T03:03:57.711Z,9.80
2023-05-04T03:06:27.568Z,9.90
2023-05-04T03:08:59.882Z,9.88
2023-05-04T03:11:29.623Z,9.27
2023-05-04T03:13:59.288Z,9.70
2023-05-04T03:16:29.086Z,10.20
2023-05-04T03:18:59.044Z,9.68
2023-05-04T03:21:29.290Z,10.10
2023-05-04T03:24:01.755Z,9.63
2023-05-04T03:26:31.511Z,10.00
2023-05-04T03:29:01.255Z,9.50
2023-05-04T03:31:31.008Z,10.40
2023-05-04T03:34:00.768Z,9.75
2023-05-04T03:36:30.698Z,10.00
2023-05-04T03:39:03.465Z,10.07
2023-05-04T03:41:33.945Z,9.82
2023-05-04T03:44:03.642Z,10.52
2023-05-04T03:46:33.623Z,11.60
2023-05-04T03:49:03.388Z,9.75
2023-05-04T03:51:33.361Z,9.90
2023-05-04T03:54:07.414Z,9.43
2023-05-04T03:56:37.209Z,10.00
2023-05-04T03:59:07.031Z,9.80
2023-05-04T04:01:37.306Z,9.60
2023-05-04T04:04:07.688Z,10.47
2023-05-04T04:06:39.994Z,10.20
2023-05-04T04:09:13.768Z,10.45
2023-05-04T04:11:43.676Z,10.10
2023-05-04T04:14:13.392Z,10.40
2023-05-04T04:16:43.103Z,10.40
2023-05-04T04:19:12.882Z,10.40
2023-05-04T04:21:42.511Z,11.15
2023-05-04T04:24:14.875Z,10.57
2023-05-04T04:26:44.565Z,10.02
2023-05-04T04:29:14.699Z,9.70
2023-05-04T04:31:44.398Z,10.13
2023-05-04T04:34:14.059Z,10.52
2023-05-04T04:36:44.022Z,9.90
2023-05-04T04:39:17.135Z,10.27
2023-05-04T04:41:46.886Z,10.00
2023-05-04T04:44:16.658Z,10.80
2023-05-04T04:46:47.516Z,10.98
2023-05-04T04:49:18.010Z,10.43
2023-05-04T04:51:49.028Z,10.70
2023-05-04T04:54:21.426Z,10.98
2023-05-04T04:56:51.178Z,10.02
2023-05-04T04:59:20.879Z,11.68
2023-05-04T05:01:50.587Z,11.43
2023-05-04T05:04:22.451Z,10.50
2023-05-04T05:06:54.286Z,12.10
2023-05-04T05:09:27.330Z,12.07
2023-05-04T05:11:58.607Z,10.90
2023-05-04T05:14:29.390Z,12.17
2023-05-04T05:17:00.509Z,11.80
2023-05-04T05:19:31.567Z,12.10
2023-05-04T05:22:02.387Z,12.40
2023-05-04T05:24:36.344Z,11.48
2023-05-04T05:27:07.098Z,11.10
2023-05-04T05:29:37.897Z,12.65
2023-05-04T05:32:09.468Z,11.32
2023-05-04T05:34:40.288Z,12.00
2023-05-04T05:37:10.356Z,11.73
2023-05-04T05:39:43.079Z,11.20
2023-05-04T05:42:12.957Z,11.32
2023-05-04T05:44:42.809Z,12.77
2023-05-04T05:47:12.586Z,11.20
2023-05-04T05:49:44.162Z,11.52
2023-05-04T05:52:15.330Z,11.30
2023-05-04T05:54:47.559Z,12.25
2023-05-04T05:57:17.733Z,11.57
2023-05-04T05:59:47.569Z,11.55
2023-05-04T06:02:17.360Z,10.82
2023-05-04T06:04:48.196Z,11.95
2023-05-04T06:07:19.548Z,11.77
2023-05-04T06:09:52.306Z,11.10
2023-05-04T06:12:22.149Z,11.98
2023-05-04T06:14:51.869Z,11.80
2023-05-04T06:17:21.882Z,11.85
2023-05-04T06:19:51.609Z,12.20
2023-05-04T06:22:21.345Z,10.57
2023-05-04T06:24:57.601Z,12.43
2023-05-04T06:27:32.727Z,10.90
2023-05-04T06:30:02.668Z,11.45
2023-05-04T06:32:32.356Z,10.75
2023-05-04T06:35:02.835Z,11.70
2023-05-04T06:37:32.594Z,11.88
2023-05-04T06:40:05.381Z,11.25
2023-05-04T06:42:35.216Z,11.45
2023-05-04T06:45:05.196Z,10.83
2023-05-04T06:47:38.072Z,10.57
2023-05-04T06:50:12.158Z,11.07
2023-05-04T06:52:42.775Z,11.90
2023-05-04T06:55:15.566Z,11.00
2023-05-04T06:57:45.268Z,12.30
2023-05-04T07:00:16.342Z,11.20
2023-05-04T07:02:47.083Z,11.25
2023-05-04T07:05:17.890Z,12.40
2023-05-04T07:07:48.616Z,12.38
2023-05-04T07:10:22.998Z,13.43
2023-05-04T07:12:52.786Z,12.48
2023-05-04T07:15:22.916Z,12.00
2023-05-04T07:17:53.140Z,12.00
2023-05-04T07:20:25.785Z,10.93
2023-05-04T07:22:57.372Z,11.90
2023-05-04T07:25:30.384Z,11.35
2023-05-04T07:28:00.145Z,7.85
2023-05-04T07:30:29.958Z,7.25
2023-05-04T07:32:59.711Z,9.35
2023-05-04T07:35:29.892Z,9.23
2023-05-04T07:37:59.612Z,7.27
2023-05-04T07:40:31.942Z,6.35
2023-05-04T07:43:01.697Z,6.60
2023-05-04T07:45:31.424Z,7.28
2023-05-04T07:48:01.183Z,6.20
2023-05-04T07:50:30.926Z,6.55
2023-05-04T07:53:00.955Z,6.70
2023-05-04T07:55:33.439Z,5.85
2023-05-04T07:58:03.388Z,5.60
2023-05-04T08:00:33.051Z,5.50
2023-05-04T08:03:02.745Z,4.50
2023-05-04T08:05:32.450Z,4.60
2023-05-04T08:08:02.275Z,4.32
2023-05-04T08:10:34.630Z,4.50
2023-05-04T08:13:04.382Z,3.92
2023-05-04T08:15:34.081Z,4.40
2023-05-04T08:18:03.738Z,4.78
2023-05-04T08:20:33.488Z,3.95
2023-05-04T08:23:04.088Z,4.00
2023-05-04T08:25:36.513Z,4.30
2023-05-04T08:28:06.634Z,4.20
2023-05-04T08:30:36.320Z,4.55
2023-05-04T08:33:05.983Z,4.20
2023-05-04T08:35:35.720Z,4.00
2023-05-04T08:38:05.379Z,4.40
2023-05-04T08:40:37.825Z,4.57
2023-05-04T08:43:07.692Z,4.70
2023-05-04T08:45:40.602Z,5.07
2023-05-04T08:48:10.720Z,4.20
2023-05-04T08:50:41.413Z,4.43
2023-05-04T08:53:16.310Z,4.73
2023-05-04T08:55:49.755Z,5.53
2023-05-04T08:58:20.086Z,4.55
2023-05-04T09:00:50.120Z,4.90
2023-05-04T09:03:20.166Z,4.60
2023-05-04T09:05:50.886Z,4.93
2023-05-04T09:08:21.036Z,4.28
2023-05-04T09:10:53.417Z,5.00
2023-05-04T09:13:23.176Z,4.80
2023-05-04T09:15:59.628Z,4.85
2023-05-04T09:18:39.200Z,4.70
2023-05-04T09:21:09.579Z,5.10
2023-05-04T09:23:49.335Z,4.90
2023-05-04T09:26:29.517Z,5.10
2023-05-04T09:28:59.572Z,4.50
2023-05-04T09:31:29.292Z,5.50
2023-05-04T09:33:59.276Z,5.60
2023-05-04T09:36:28.913Z,4.85
2023-05-04T09:38:58.589Z,4.67
2023-05-04T09:41:37.354Z,5.80
2023-05-04T09:44:07.471Z,4.72
2023-05-04T09:46:37.686Z,5.50
2023-05-04T09:49:07.405Z,5.18
2023-05-04T09:51:37.072Z,5.40
2023-05-04T09:54:07.218Z,4.82
2023-05-04T09:56:44.756Z,5.10
2023-05-04T09:59:14.731Z,5.70
2023-05-04T10:01:45.029Z,5.43
2023-05-04T10:04:15.033Z,5.55
2023-05-04T10:06:46.034Z,5.20
2023-05-04T10:09:16.716Z,4.93
2023-05-04T10:11:48.993Z,5.25
2023-05-04T10:14:18.770Z,4.53
2023-05-04T10:16:53.375Z,5.40
2023-05-04T10:19:47.228Z,5.30
2023-05-04T10:22:30.602Z,4.65
2023-05-04T10:25:10.494Z,4.70
2023-05-04T10:27:49.586Z,4.30
2023-05-04T10:30:20.547Z,4.65
2023-05-04T10:32:58.187Z,4.90
2023-05-04T10:35:28.448Z,4.35
2023-05-04T10:37:59.236Z,4.30
2023-05-04T10:40:39.389Z,3.90
2023-05-04T10:43:13.291Z,3.80
2023-05-04T10:45:44.184Z,3.60
2023-05-04T10:48:14.267Z,4.20
2023-05-04T10:50:47.809Z,4.10
2023-05-04T10:53:18.619Z,4.00
2023-05-04T10:55:49.625Z,4.47
2023-05-04T10:58:31.337Z,4.20
2023-05-04T11:01:01.150Z,5.43
2023-05-04T11:03:41.576Z,4.50
2023-05-04T11:06:19.549Z,4.32
2023-05-04T11:08:52.116Z,3.77
2023-05-04T11:11:21.944Z,3.92
2023-05-04T11:13:54.998Z,4.00
2023-05-04T11:16:28.226Z,4.20
2023-05-04T11:18:58.057Z,3.80
2023-05-04T11:21:28.128Z,3.50
2023-05-04T11:23:59.424Z,3.92
2023-05-04T11:26:29.495Z,3.50
2023-05-04T11:29:01.908Z,3.80
2023-05-04T11:31:31.838Z,3.83
2023-05-04T11:34:01.741Z,3.55
2023-05-04T11:36:32.307Z,3.73
2023-05-04T11:39:02.048Z,3.60
2023-05-04T11:41:31.937Z,4.07
2023-05-04T11:44:04.497Z,4.00
2023-05-04T11:46:35.764Z,3.90
2023-05-04T11:49:06.648Z,3.40
2023-05-04T11:51:36.475Z,3.30
2023-05-04T11:54:07.444Z,3.00
2023-05-04T11:56:44.576Z,3.30
2023-05-04T11:59:16.894Z,3.35
2023-05-04T12:01:47.914Z,3.30
2023-05-04T12:04:17.664Z,3.42
2023-05-04T12:06:47.878Z,3.50
2023-05-04T12:09:17.617Z,3.70
2023-05-04T12:11:56.665Z,3.85
2023-05-04T12:14:28.955Z,3.50
2023-05-04T12:17:02.922Z,3.65
2023-05-04T12:19:32.824Z,3.00
2023-05-04T12:22:05.194Z,3.50
2023-05-04T12:24:34.901Z,3.30
2023-05-04T12:27:05.077Z,3.53
2023-05-04T12:29:37.366Z,3.20
2023-05-04T12:32:07.246Z,3.28
2023-05-04T12:34:37.067Z,3.30
2023-05-04T12:37:06.723Z,3.70
2023-05-04T12:39:36.432Z,3.42
2023-05-04T12:42:06.962Z,3.40
2023-05-04T12:44:39.256Z,3.38
2023-05-04T12:47:09.562Z,3.03
2023-05-04T12:49:39.304Z,3.23
2023-05-04T12:52:09.081Z,3.53
2023-05-04T12:54:38.766Z,3.10
2023-05-04T12:57:08.496Z,3.45
2023-05-04T12:59:40.779Z,3.13
2023-05-04T13:02:10.739Z,3.13
2023-05-04T13:04:40.592Z,3.50
2023-05-04T13:07:10.655Z,3.25
2023-05-04T13:09:40.299Z,3.25
2023-05-04T13:12:10.197Z,3.50
2023-05-04T13:14:42.528Z,3.50
2023-05-04T13:17:12.246Z,3.17
2023-05-04T13:19:41.956Z,3.00
2023-05-04T13:22:11.691Z,3.10
2023-05-04T13:24:41.521Z,3.03
2023-05-04T13:27:11.173Z,3.00
2023-05-04T13:29:44.259Z,2.85
2023-05-04T13:32:14.111Z,3.20
2023-05-04T13:34:43.956Z,3.30
2023-05-04T13:37:18.468Z,3.28
2023-05-04T13:39:48.907Z,3.30
2023-05-04T13:42:18.585Z,4.00
2023-05-04T13:44:50.967Z,2.80
2023-05-04T13:47:20.769Z,3.13
2023-05-04T13:49:50.412Z,2.92
2023-05-04T13:52:20.102Z,2.80
2023-05-04T13:54:49.788Z,2.70
2023-05-04T13:57:19.471Z,2.70
2023-05-04T14:00:05.915Z,3.03
2023-05-04T14:02:43.446Z,2.90
2023-05-04T14:05:13.996Z,3.17
2023-05-04T14:07:43.816Z,3.05
2023-05-04T14:10:13.996Z,3.00
2023-05-04T14:12:44.071Z,3.00
2023-05-04T14:15:16.735Z,3.60
2023-05-04T14:17:46.558Z,3.00
2023-05-04T14:20:16.831Z,2.90
2023-05-04T14:22:47.541Z,2.40
2023-05-04T14:25:17.302Z,2.40
2023-05-04T14:27:46.970Z,2.80
2023-05-04T14:30:19.732Z,2.58
2023-05-04T14:32:50.259Z,3.20
2023-05-04T14:35:20.113Z,2.40
2023-05-04T14:37:50.290Z,2.70
2023-05-04T14:40:19.955Z,2.50
2023-05-04T14:42:49.584Z,2.50
2023-05-04T14:45:21.981Z,2.35
2023-05-04T14:47:51.858Z,2.43
2023-05-04T14:50:21.543Z,2.95
2023-05-04T14:52:51.283Z,2.70
2023-05-04T14:55:20.988Z,2.42
2023-05-04T14:57:51.062Z,2.40
2023-05-04T15:00:23.759Z,2.97
2023-05-04T15:02:53.576Z,2.60
2023-05-04T15:05:23.333Z,2.40
2023-05-04T15:07:53.034Z,2.63
2023-05-04T15:10:22.690Z,2.67
2023-05-04T15:12:52.931Z,2.80
2023-05-04T15:15:25.239Z,2.63
2023-05-04T15:17:55.257Z,2.55
2023-05-04T15:20:25.007Z,2.43
2023-05-04T15:22:54.705Z,2.50
2023-05-04T15:25:25.170Z,2.88
2023-05-04T15:27:55.137Z,3.00
2023-05-04T15:30:27.430Z,3.70
2023-05-04T15:32:57.192Z,3.30
2023-05-04T15:35:26.956Z,3.60
2023-05-04T15:37:56.756Z,3.75
2023-05-04T15:40:26.743Z,3.40
2023-05-04T15:42:56.556Z,4.03
2023-05-04T15:45:28.939Z,3.20
2023-05-04T15:48:00.336Z,3.40
2023-05-04T15:50:31.690Z,3.70
2023-05-04T15:53:02.761Z,3.55
2023-05-04T15:55:32.492Z,3.50
2023-05-04T15:58:02.500Z,3.50
2023-05-04T16:00:34.888Z,3.13
2023-05-04T16:03:04.853Z,3.30
2023-05-04T16:05:34.938Z,3.70
2023-05-04T16:08:04.757Z,3.58
2023-05-04T16:10:34.441Z,3.90
2023-05-04T16:13:05.447Z,3.05
2023-05-04T16:15:37.927Z,3.10
2023-05-04T16:18:08.223Z,2.70
2023-05-04T16:20:38.029Z,2.70
2023-05-04T16:23:07.720Z,2.70
2023-05-04T16:25:37.403Z,3.17
2023-05-04T16:28:07.296Z,2.70
2023-05-04T16:30:42.410Z,3.20
2023-05-04T16:33:12.610Z,2.92
2023-05-04T16:35:42.283Z,2.80
2023-05-04T16:38:11.962Z,3.05
2023-05-04T16:40:41.711Z,3.20
2023-05-04T16:43:12.975Z,3.00
2023-05-04T16:45:45.418Z,2.70
2023-05-04T16:48:15.256Z,3.00
2023-05-04T16:50:45.024Z,2.97
2023-05-04T16:53:14.655Z,2.70
2023-05-04T16:55:44.300Z,3.00
2023-05-04T16:58:13.983Z,2.78
2023-05-04T17:00:46.420Z,2.85
2023-05-04T17:03:16.227Z,2.58
2023-05-04T17:05:45.920Z,2.50
2023-05-04T17:08:17.253Z,3.10
2023-05-04T17:10:46.986Z,3.10
2023-05-04T17:13:16.794Z,3.13
2023-05-04T17:15:49.157Z,3.10
2023-05-04T17:18:18.939Z,2.90
2023-05-04T17:20:48.759Z,3.40
2023-05-04T17:23:18.443Z,3.40
2023-05-04T17:25:48.388Z,2.70
2023-05-04T17:28:18.036Z,3.03
2023-05-04T17:30:50.312Z,2.92
2023-05-04T17:33:20.089Z,4.20
2023-05-04T17:35:49.723Z,5.00
2023-05-04T17:38:19.384Z,3.00
2023-05-04T17:40:49.131Z,3.10
2023-05-04T17:43:18.804Z,3.13
2023-05-04T17:45:52.462Z,3.00
2023-05-04T17:48:24.166Z,3.20
2023-05-04T17:50:54.051Z,3.10
2023-05-04T17:53:23.675Z,3.40
2023-05-04T17:55:53.360Z,3.40
2023-05-04T17:58:23.074Z,3.20
2023-05-04T18:00:55.546Z,3.00
2023-05-04T18:03:25.318Z,3.58
2023-05-04T18:05:55.120Z,3.00
2023-05-04T18:08:24.808Z,3.25
2023-05-04T18:10:54.473Z,3.42
2023-05-04T18:13:24.302Z,3.50
2023-05-04T18:15:56.787Z,3.67
2023-05-04T18:18:26.516Z,3.20
2023-05-04T18:20:56.324Z,3.10
2023-05-04T18:23:26.247Z,3.20
2023-05-04T18:25:55.933Z,2.83
2023-05-04T18:28:25.933Z,3.50
2023-05-04T18:30:58.280Z,2.92
2023-05-04T18:33:28.130Z,3.70
2023-05-04T18:35:57.926Z,3.53
2023-05-04T18:38:28.718Z,3.30
2023-05-04T18:40:58.419Z,3.78
2023-05-04T18:43:28.201Z,3.70
2023-05-04T18:46:00.608Z,3.90
2023-05-04T18:48:30.456Z,3.63
2023-05-04T18:51:00.133Z,3.40
2023-05-04T18:53:29.885Z,3.73
2023-05-04T18:56:03.882Z,3.58
2023-05-04T18:58:34.146Z,4.00
2023-05-04T19:01:06.715Z,4.10
2023-05-04T19:03:36.833Z,4.32
2023-05-04T19:06:06.792Z,4.20
2023-05-04T19:08:36.569Z,4.37
2023-05-04T19:11:07.182Z,3.70
2023-05-04T19:13:37.027Z,4.50
2023-05-04T19:16:14.353Z,3.90
2023-05-04T19:18:44.364Z,3.97
2023-05-04T19:21:14.169Z,4.05
2023-05-04T19:23:43.885Z,4.30
2023-05-04T19:26:13.595Z,4.10
2023-05-04T19:28:43.557Z,4.25
2023-05-04T19:31:15.958Z,4.50
2023-05-04T19:33:48.763Z,4.30
2023-05-04T19:36:18.760Z,4.50
2023-05-04T19:38:48.637Z,4.10
2023-05-04T19:41:18.881Z,4.20
2023-05-04T19:43:48.583Z,4.30
2023-05-04T19:46:21.448Z,4.40
2023-05-04T19:48:51.219Z,4.90
2023-05-04T19:51:21.206Z,4.30
2023-05-04T19:53:50.944Z,5.60
2023-05-04T19:56:20.738Z,4.45
2023-05-04T19:58:51.359Z,4.40
2023-05-04T20:01:23.689Z,4.30
2023-05-04T20:03:53.839Z,4.50
2023-05-04T20:06:23.498Z,4.60
2023-05-04T20:08:53.992Z,4.50
2023-05-04T20:11:23.878Z,4.97
2023-05-04T20:13:55.549Z,4.20
2023-05-04T20:16:28.212Z,4.60
2023-05-04T20:18:58.044Z,4.53
2023-05-04T20:21:28.038Z,4.30
2023-05-04T20:23:57.985Z,4.50
2023-05-04T20:26:27.695Z,4.68
2023-05-04T20:28:57.387Z,5.30
2023-05-04T20:31:30.099Z,4.75
2023-05-04T20:33:59.824Z,5.20
2023-05-04T20:36:29.527Z,5.50
2023-05-04T20:39:00.160Z,5.32
2023-05-04T20:41:29.961Z,5.13
2023-05-04T20:44:00.180Z,5.18
2023-05-04T20:46:32.549Z,5.70
2023-05-04T20:49:02.949Z,4.90
2023-05-04T20:51:32.900Z,5.15
2023-05-04T20:54:02.564Z,5.50
2023-05-04T20:56:32.225Z,5.82
2023-05-04T20:59:02.110Z,5.60
2023-05-04T21:01:34.553Z,5.60
2023-05-04T21:04:04.424Z,5.80
2023-05-04T21:06:34.196Z,5.18
2023-05-04T21:09:04.602Z,5.95
2023-05-04T21:11:34.315Z,5.20
2023-05-04T21:14:03.970Z,5.72
2023-05-04T21:16:36.760Z,5.80
2023-05-04T21:19:06.599Z,6.00
2023-05-04T21:21:40.791Z,6.43
2023-05-04T21:24:14.836Z,6.05
2023-05-04T21:26:45.686Z,6.30
2023-05-04T21:29:15.568Z,6.40
2023-05-04T21:31:48.002Z,7.73
2023-05-04T21:34:17.818Z,4.90
2023-05-04T21:36:47.504Z,5.32
2023-05-04T21:39:17.360Z,6.13
2023-05-04T21:41:47.038Z,5.65
2023-05-04T21:44:16.739Z,4.50
2023-05-04T21:46:49.126Z,5.40
2023-05-04T21:49:18.870Z,5.65
2023-05-04T21:51:49.281Z,5.10
2023-05-04T21:54:19.025Z,4.90
2023-05-04T21:56:48.744Z,4.80
2023-05-04T21:59:18.412Z,4.68
2023-05-04T22:01:50.623Z,4.70
2023-05-04T22:04:20.399Z,5.10
2023-05-04T22:06:50.290Z,5.20
2023-05-04T22:09:20.027Z,4.67
2023-05-04T22:11:51.563Z,4.80
2023-05-04T22:14:21.583Z,5.78
2023-05-04T22:16:53.896Z,4.80
2023-05-04T22:19:23.676Z,5.00
2023-05-04T22:21:53.401Z,4.90
2023-05-04T22:24:23.129Z,4.80
2023-05-04T22:26:52.812Z,5.13
2023-05-04T22:29:22.509Z,4.60
2023-05-04T22:31:54.813Z,4.75
2023-05-04T22:34:24.511Z,5.13
2023-05-04T22:36:54.183Z,5.07
2023-05-04T22:39:24.675Z,5.13
2023-05-04T22:41:54.295Z,4.90
2023-05-04T22:44:23.977Z,4.75
2023-05-04T22:46:56.302Z,4.70
2023-05-04T22:49:25.984Z,4.50
2023-05-04T22:51:55.607Z,4.47
2023-05-04T22:54:25.868Z,4.80
2023-05-04T22:56:56.006Z,4.97
2023-05-04T22:59:25.796Z,4.50
2023-05-04T23:01:58.132Z,4.97
2023-05-04T23:04:28.279Z,4.60
2023-05-04T23:06:58.150Z,4.53
2023-05-04T23:09:27.871Z,4.30
2023-05-04T23:11:58.100Z,4.65
2023-05-04T23:14:27.812Z,4.80
2023-05-04T23:17:00.162Z,4.60
2023-05-04T23:19:30.190Z,4.13
2023-05-04T23:21:59.851Z,4.70
2023-05-04T23:24:29.643Z,4.30
2023-05-04T23:26:59.332Z,4.20
2023-05-04T23:29:29.280Z,4.32
2023-05-04T23:32:01.712Z,4.50
2023-05-04T23:34:32.131Z,4.10
2023-05-04T23:37:01.860Z,4.30
2023-05-04T23:39:31.517Z,4.20
2023-05-04T23:42:01.252Z,4.60
2023-05-04T23:44:30.920Z,4.50
2023-05-04T23:47:03.201Z,4.75
2023-05-04T23:49:32.974Z,5.00
2023-05-04T23:52:02.652Z,4.60
2023-05-04T23:54:32.398Z,4.53
2023-05-04T23:57:02.021Z,4.80
2023-05-04T23:59:31.717Z,4.53
